Time;durP1;ratioP1;P1;durP2;ratioP2;P2;SDS_P1;SDS_P2;PMS_P1;PMS_P2;Temp;Humidity;BMP_temperature;BMP_pressure;BME280_temperature;BME280_humidity;BME280_pressure;Samples;Min_cycle;Max_cycle;Signal;HPM_P1;HPM_P2
2022/11/19 00:00:46;;;;;;;1.23;0.93;;;;;;;5.65;100.00;94656.63;4964015;28;20228;-83
2022/11/19 00:03:13;;;;;;;1.03;0.90;;;;;;;5.76;100.00;94655.69;4972367;28;20712;-84
2022/11/19 00:05:42;;;;;;;3.17;1.00;;;;;;;5.85;100.00;94658.22;4956133;28;20620;-82
2022/11/19 00:08:08;;;;;;;1.73;0.97;;;;;;;5.89;99.99;94648.44;4967514;28;20195;-82
2022/11/19 00:10:35;;;;;;;3.60;1.10;;;;;;;5.68;100.00;94661.53;4967640;28;20181;-82
2022/11/19 00:13:01;;;;;;;1.50;1.10;;;;;;;5.81;100.00;94658.63;4955307;28;20228;-83
2022/11/19 00:15:27;;;;;;;2.70;0.90;;;;;;;5.80;100.00;94652.66;4969305;28;20189;-83
2022/11/19 00:17:52;;;;;;;1.23;1.00;;;;;;;5.82;100.00;94653.34;4969345;28;20196;-83
2022/11/19 00:20:17;;;;;;;1.63;0.83;;;;;;;5.74;100.00;94650.66;4947635;28;20212;-83
2022/11/19 00:22:43;;;;;;;1.37;1.00;;;;;;;5.71;100.00;94650.13;4968655;28;20205;-83
2022/11/19 00:25:09;;;;;;;1.60;0.83;;;;;;;5.68;100.00;94656.38;4969842;28;20557;-83
2022/11/19 00:27:34;;;;;;;1.07;0.97;;;;;;;5.71;100.00;94653.50;4969134;28;20192;-82
2022/11/19 00:30:01;;;;;;;1.07;0.97;;;;;;;5.66;100.00;94656.53;4941592;28;20532;-83
2022/11/19 00:32:26;;;;;;;0.90;0.90;;;;;;;5.72;100.00;94649.97;4964713;28;20209;-83
2022/11/19 00:34:51;;;;;;;1.00;0.90;;;;;;;5.57;100.00;94646.25;4947298;28;20201;-82
2022/11/19 00:37:17;;;;;;;1.87;1.10;;;;;;;5.62;100.00;94647.44;4947054;28;20291;-82
2022/11/19 00:39:42;;;;;;;2.73;1.40;;;;;;;5.54;100.00;94644.75;4973642;28;20192;-84
2022/11/19 00:42:07;;;;;;;1.00;0.93;;;;;;;5.58;100.00;94637.56;4967199;28;20205;-83
2022/11/19 00:44:32;;;;;;;0.70;0.70;;;;;;;5.69;100.00;94642.53;4976726;28;20196;-83
2022/11/19 00:46:58;;;;;;;0.93;0.80;;;;;;;5.69;100.00;94652.84;4975894;28;20188;-83
2022/11/19 00:49:23;;;;;;;0.57;0.57;;;;;;;5.54;100.00;94643.94;4976349;28;20188;-83
2022/11/19 00:51:48;;;;;;;1.60;0.90;;;;;;;5.59;100.00;94647.72;4953751;28;20307;-83
2022/11/19 00:54:14;;;;;;;1.07;0.80;;;;;;;5.66;100.00;94647.97;4965998;28;20315;-82
2022/11/19 00:56:39;;;;;;;0.73;0.73;;;;;;;5.80;100.00;94644.94;4964675;28;20184;-83
2022/11/19 00:59:04;;;;;;;2.60;0.80;;;;;;;5.84;100.00;94654.03;4974726;28;20656;-84
2022/11/19 01:01:30;;;;;;;2.20;0.80;;;;;;;5.87;100.00;94650.34;4977228;28;20228;-82
2022/11/19 01:03:55;;;;;;;0.93;0.90;;;;;;;5.81;100.00;94650.91;4948977;28;20192;-83
2022/11/19 01:06:22;;;;;;;2.17;0.93;;;;;;;5.84;100.00;94648.06;4949602;28;20542;-83
2022/11/19 01:08:48;;;;;;;1.70;0.90;;;;;;;5.85;100.00;94645.34;4968483;28;20180;-83
2022/11/19 01:11:16;;;;;;;1.87;0.90;;;;;;;5.82;100.00;94648.19;4997235;28;20216;-84
2022/11/19 01:13:42;;;;;;;0.90;0.90;;;;;;;5.80;100.00;94647.53;5003637;28;20173;-83
2022/11/19 01:16:09;;;;;;;0.60;0.60;;;;;;;5.80;100.00;94644.94;4978428;28;20244;-83
2022/11/19 01:18:36;;;;;;;1.30;1.20;;;;;;;5.77;100.00;94645.22;4996556;28;20185;-83
2022/11/19 01:21:01;;;;;;;0.87;0.73;;;;;;;5.78;100.00;94648.63;4970410;28;20201;-84
2022/11/19 01:23:27;;;;;;;0.80;0.70;;;;;;;5.72;100.00;94657.72;4978655;28;20208;-84
2022/11/19 01:25:52;;;;;;;0.70;0.70;;;;;;;5.74;100.00;94652.41;4977840;28;20223;-83
2022/11/19 01:28:18;;;;;;;0.63;0.63;;;;;;;5.72;100.00;94656.91;4977330;28;20192;-84
2022/11/19 01:30:43;;;;;;;0.77;0.70;;;;;;;5.67;100.00;94654.75;4970779;28;20185;-83
2022/11/19 01:33:09;;;;;;;1.07;0.80;;;;;;;5.56;100.00;94652.31;4975092;28;20208;-83
2022/11/19 01:35:36;;;;;;;0.90;0.63;;;;;;;5.63;100.00;94648.25;4971512;28;20192;-83
2022/11/19 01:38:02;;;;;;;1.20;0.90;;;;;;;5.71;100.00;94648.34;4960611;28;20236;-83
2022/11/19 01:40:28;;;;;;;1.10;1.00;;;;;;;5.87;100.00;94653.75;4975423;28;20208;-83
2022/11/19 01:42:53;;;;;;;1.67;1.17;;;;;;;5.85;100.00;94653.06;4968086;28;20263;-82
2022/11/19 01:45:36;;;;;;;1.40;1.20;;;;;;;5.91;100.00;94641.41;4963295;28;20193;-83
2022/11/19 01:48:15;;;;;;;2.57;1.70;;;;;;;5.94;100.00;94651.44;4964004;28;20232;-83
2022/11/19 01:50:45;;;;;;;2.73;1.50;;;;;;;6.03;100.00;94654.94;4949853;28;20752;-81
2022/11/19 01:53:11;;;;;;;3.37;1.10;;;;;;;6.05;100.00;94647.88;4973488;28;20200;-83
2022/11/19 01:55:37;;;;;;;3.53;1.60;;;;;;;6.06;99.83;94655.47;4971406;28;20185;-82
2022/11/19 01:58:03;;;;;;;2.60;1.50;;;;;;;5.97;100.00;94659.69;4960921;28;20192;-82
2022/11/19 02:00:28;;;;;;;3.00;1.60;;;;;;;6.00;100.00;94657.78;4971878;28;20212;-83
2022/11/19 02:02:54;;;;;;;3.67;2.07;;;;;;;6.01;100.00;94656.81;4971518;28;20204;-84
2022/11/19 02:05:20;;;;;;;3.93;1.90;;;;;;;6.04;100.00;94662.53;4974503;28;20555;-83
2022/11/19 02:07:54;;;;;;;4.50;2.40;;;;;;;6.10;100.00;94661.16;4950100;28;20227;-83
2022/11/19 02:10:49;;;;;;;3.27;2.20;;;;;;;5.95;100.00;94661.63;4965669;28;20184;-82
2022/11/19 02:13:21;;;;;;;4.40;2.40;;;;;;;6.05;100.00;94658.19;4960085;28;20220;-83
2022/11/19 02:15:53;;;;;;;5.27;2.70;;;;;;;6.07;100.00;94659.66;4960311;28;20252;-83
2022/11/19 02:18:36;;;;;;;3.13;2.83;;;;;;;6.16;100.00;94651.06;4973886;28;20189;-83
2022/11/19 02:21:12;;;;;;;2.73;2.47;;;;;;;6.15;100.00;94658.97;4927664;28;20220;-83
2022/11/19 02:23:58;;;;;;;3.93;2.97;;;;;;;6.17;100.00;94667.34;4984372;28;20278;-84
2022/11/19 02:27:01;;;;;;;8.13;3.20;;;;;;;6.23;100.00;94659.88;4975499;28;20192;-83
2022/11/19 02:29:30;;;;;;;4.13;2.77;;;;;;;6.22;100.00;94660.03;4991248;28;20214;-83
2022/11/19 02:32:12;;;;;;;5.27;3.07;;;;;;;6.24;100.00;94652.94;4975100;28;20215;-82
2022/11/19 02:34:41;;;;;;;5.50;2.90;;;;;;;6.25;100.00;94655.38;4965244;28;20189;-84
2022/11/19 02:37:16;;;;;;;3.27;2.97;;;;;;;6.32;100.00;94655.63;4942156;28;20201;-83
2022/11/19 02:39:50;;;;;;;5.17;2.87;;;;;;;6.25;100.00;94657.16;4970423;28;20188;-83
2022/11/19 02:42:53;;;;;;;5.77;2.57;;;;;;;6.18;100.00;94661.25;4972241;28;20208;-81
2022/11/19 02:45:22;;;;;;;2.73;2.30;;;;;;;6.18;100.00;94664.66;4980532;28;20192;-83
2022/11/19 02:47:53;;;;;;;3.40;2.63;;;;;;;6.20;100.00;94656.78;4970320;28;20678;-83
2022/11/19 02:50:35;;;;;;;3.70;2.70;;;;;;;6.19;100.00;94657.72;4974029;28;20208;-82
2022/11/19 02:53:03;;;;;;;2.60;2.40;;;;;;;6.23;100.00;94664.22;4971095;28;20268;-83
2022/11/19 02:55:28;;;;;;;3.57;3.10;;;;;;;6.23;100.00;94665.03;4956417;28;20248;-83
2022/11/19 02:57:58;;;;;;;5.73;3.00;;;;;;;6.30;100.00;94667.84;4966140;28;20220;-83
2022/11/19 03:06:15;;;;;;;7.33;2.80;;;;;;;6.28;100.00;94669.78;4926338;28;20192;-83
2022/11/19 03:08:41;;;;;;;3.50;3.20;;;;;;;6.22;100.00;94671.13;4962391;28;20185;-83
2022/11/19 03:11:15;;;;;;;6.87;3.27;;;;;;;6.24;100.00;94660.69;4956802;28;20284;-83
2022/11/19 03:16:40;;;;;;;6.30;3.07;;;;;;;6.31;100.00;94664.31;4970261;28;20227;-83
2022/11/19 03:19:32;;;;;;;3.93;3.17;;;;;;;6.35;100.00;94667.41;4958925;28;20189;-82
2022/11/19 03:22:03;;;;;;;4.80;3.10;;;;;;;6.32;100.00;94668.50;4971604;28;20247;-81
2022/11/19 03:24:36;;;;;;;3.03;2.73;;;;;;;6.30;100.00;94672.19;4960597;28;20244;-83
2022/11/19 03:27:09;;;;;;;4.10;3.03;;;;;;;6.24;100.00;94673.56;4951241;28;20287;-82
2022/11/19 03:29:37;;;;;;;3.60;2.70;;;;;;;6.22;100.00;94680.63;4954841;28;20196;-82
2022/11/19 03:32:10;;;;;;;8.47;2.97;;;;;;;6.29;100.00;94676.53;4962791;28;20236;-83
2022/11/19 03:34:37;;;;;;;3.47;2.40;;;;;;;6.09;100.00;94675.78;4968928;28;20200;-82
2022/11/19 03:37:04;;;;;;;3.17;2.63;;;;;;;6.14;100.00;94675.38;4951147;28;20262;-82
2022/11/19 03:39:29;;;;;;;5.13;2.77;;;;;;;5.96;100.00;94670.97;4963869;28;20551;-82
2022/11/19 03:41:55;;;;;;;3.90;2.63;;;;;;;6.02;100.00;94673.94;4961921;28;20213;-82
2022/11/19 03:44:28;;;;;;;2.90;2.50;;;;;;;6.07;100.00;94684.63;4971524;28;20653;-82
2022/11/19 03:47:04;;;;;;;2.93;2.63;;;;;;;6.14;100.00;94680.53;4968523;28;20223;-82
2022/11/19 03:49:33;;;;;;;2.90;2.70;;;;;;;6.08;100.00;94684.47;4960651;28;20740;-82
2022/11/19 03:52:04;;;;;;;5.37;2.83;;;;;;;6.20;100.00;94687.72;4957483;28;20640;-81
2022/11/19 03:54:29;;;;;;;3.93;3.20;;;;;;;6.18;100.00;94689.59;4954244;28;20716;-83
2022/11/19 03:56:56;;;;;;;6.93;3.00;;;;;;;6.16;100.00;94686.34;4968594;28;20197;-83
2022/11/19 03:59:22;;;;;;;3.40;2.73;;;;;;;6.19;100.00;94686.91;4955081;28;20192;-81
2022/11/19 04:01:49;;;;;;;4.03;3.63;;;;;;;6.22;100.00;94693.53;4967597;28;20220;-82
2022/11/19 04:06:58;;;;;;;4.10;2.97;;;;;;;6.29;100.00;94692.03;4967705;28;20254;-82
2022/11/19 04:09:23;;;;;;;4.37;3.10;;;;;;;6.37;100.00;94699.03;4951814;28;20212;-82
2022/11/19 04:11:49;;;;;;;7.00;3.70;;;;;;;6.24;100.00;94700.16;4954301;28;20208;-82
2022/11/19 04:14:14;;;;;;;4.23;3.43;;;;;;;6.23;100.00;94697.72;4968389;28;20192;-82
2022/11/19 04:16:39;;;;;;;3.93;2.97;;;;;;;6.25;100.00;94695.81;4947485;28;20239;-83
2022/11/19 04:19:04;;;;;;;3.57;2.93;;;;;;;6.30;100.00;94703.94;4971941;28;20211;-82
2022/11/19 04:21:30;;;;;;;3.33;3.03;;;;;;;6.30;100.00;94709.09;4973160;28;20220;-83
2022/11/19 04:23:55;;;;;;;4.37;3.30;;;;;;;6.19;100.00;94697.22;4964985;28;20199;-83
2022/11/19 04:26:20;;;;;;;3.47;3.10;;;;;;;6.16;100.00;94705.22;4972197;28;20189;-82
2022/11/19 04:28:46;;;;;;;3.70;3.37;;;;;;;6.18;100.00;94699.91;4968476;28;20188;-81
2022/11/19 04:31:11;;;;;;;9.10;3.33;;;;;;;6.22;100.00;94694.34;4945635;28;20242;-83
2022/11/19 04:33:36;;;;;;;3.53;3.23;;;;;;;6.21;100.00;94694.50;4951175;28;20772;-82
2022/11/19 04:36:02;;;;;;;4.30;3.40;;;;;;;6.27;100.00;94698.25;4973224;28;20188;-82
2022/11/19 04:38:27;;;;;;;3.77;3.47;;;;;;;6.27;100.00;94693.09;4958834;28;20572;-82
2022/11/19 04:40:52;;;;;;;5.30;3.50;;;;;;;6.25;100.00;94695.81;4973622;28;20200;-82
2022/11/19 04:43:17;;;;;;;4.63;3.37;;;;;;;6.24;100.00;94695.00;4974307;28;20205;-82
2022/11/19 04:45:43;;;;;;;4.93;3.40;;;;;;;6.19;100.00;94699.78;4973639;28;20730;-82
2022/11/19 04:48:08;;;;;;;3.80;3.10;;;;;;;6.25;100.00;94706.13;4961339;28;20185;-81
2022/11/19 04:50:33;;;;;;;4.10;2.87;;;;;;;6.32;100.00;94711.53;4950450;28;20195;-83
2022/11/19 04:52:59;;;;;;;3.30;3.00;;;;;;;6.31;100.00;94705.56;4970261;28;20209;-83
2022/11/19 04:55:24;;;;;;;3.17;2.87;;;;;;;6.36;100.00;94702.56;4990128;28;20219;-82
2022/11/19 04:57:50;;;;;;;4.10;2.67;;;;;;;6.34;100.00;94704.47;4990620;28;20217;-82
2022/11/19 05:00:16;;;;;;;3.70;3.20;;;;;;;6.31;100.00;94712.50;5006205;28;20212;-82
2022/11/19 05:02:42;;;;;;;3.40;3.10;;;;;;;6.31;100.00;94704.75;4988857;28;20205;-83
2022/11/19 05:05:07;;;;;;;4.17;2.90;;;;;;;6.31;100.00;94703.00;4985411;28;20197;-83
2022/11/19 05:07:32;;;;;;;3.63;3.33;;;;;;;6.19;100.00;94701.56;4982807;28;20193;-83
2022/11/19 05:09:58;;;;;;;3.50;3.17;;;;;;;6.23;100.00;94703.69;4948827;28;20626;-84
2022/11/19 05:12:23;;;;;;;4.80;3.27;;;;;;;6.11;100.00;94704.84;4973871;28;20224;-84
2022/11/19 05:14:48;;;;;;;3.57;3.10;;;;;;;6.17;100.00;94704.25;4974892;28;20192;-84
2022/11/19 05:17:13;;;;;;;3.43;3.10;;;;;;;6.06;100.00;94708.78;4950890;28;20665;-84
2022/11/19 05:19:39;;;;;;;3.90;3.60;;;;;;;6.05;100.00;94710.53;4946332;28;20281;-83
2022/11/19 05:22:04;;;;;;;4.20;3.50;;;;;;;6.16;100.00;94712.13;4977250;28;20236;-83
2022/11/19 05:24:29;;;;;;;4.20;3.47;;;;;;;6.18;100.00;94702.47;4972822;28;20221;-82
2022/11/19 05:26:55;;;;;;;5.23;3.80;;;;;;;6.09;100.00;94711.06;4961464;28;20200;-81
2022/11/19 05:29:20;;;;;;;4.00;3.60;;;;;;;6.22;100.00;94709.00;4973083;28;20188;-81
2022/11/19 05:31:45;;;;;;;4.30;3.70;;;;;;;6.12;100.00;94706.47;4973862;28;20263;-80
2022/11/19 05:34:10;;;;;;;5.00;3.80;;;;;;;6.20;100.00;94706.56;4966007;28;20184;-82
2022/11/19 05:36:36;;;;;;;3.93;3.57;;;;;;;6.16;100.00;94712.13;4970367;28;20197;-82
2022/11/19 05:39:01;;;;;;;4.07;3.63;;;;;;;6.21;100.00;94708.19;4952351;28;20197;-82
2022/11/19 05:41:26;;;;;;;4.57;3.47;;;;;;;6.17;100.00;94706.03;4969469;28;20308;-82
2022/11/19 05:43:52;;;;;;;5.13;3.27;;;;;;;6.14;100.00;94708.88;4975266;28;20611;-82
2022/11/19 05:46:17;;;;;;;4.53;4.03;;;;;;;6.22;100.00;94706.41;4959058;28;20200;-82
2022/11/19 05:48:42;;;;;;;5.30;4.00;;;;;;;6.22;100.00;94701.25;4963323;28;20200;-82
2022/11/19 05:51:15;;;;;;;4.23;3.83;;;;;;;6.17;100.00;94695.72;4962342;28;20185;-81
2022/11/19 05:53:41;;;;;;;3.70;3.40;;;;;;;6.14;100.00;94703.72;4970776;28;20188;-81
2022/11/19 05:56:06;;;;;;;4.90;3.70;;;;;;;6.05;100.00;94707.97;4958229;28;20292;-81
2022/11/19 05:58:31;;;;;;;5.17;3.00;;;;;;;6.05;100.00;94702.00;4962304;28;20203;-82
2022/11/19 06:00:57;;;;;;;5.70;3.43;;;;;;;6.00;100.00;94702.41;4958376;28;20257;-82
2022/11/19 06:03:23;;;;;;;3.87;3.30;;;;;;;5.99;100.00;94707.72;4973330;28;20299;-81
2022/11/19 06:05:48;;;;;;;3.73;3.00;;;;;;;5.98;100.00;94704.31;4966077;28;20335;-82
2022/11/19 06:08:13;;;;;;;4.13;2.57;;;;;;;5.95;100.00;94713.16;4964290;28;20225;-82
2022/11/19 06:10:39;;;;;;;3.83;2.83;;;;;;;5.87;100.00;94723.31;4970613;28;20343;-81
2022/11/19 06:13:04;;;;;;;2.40;2.20;;;;;;;5.83;100.00;94719.41;4965603;28;20216;-82
2022/11/19 06:15:29;;;;;;;2.77;2.10;;;;;;;5.78;100.00;94723.34;4950386;28;20248;-83
2022/11/19 06:17:55;;;;;;;2.37;2.17;;;;;;;5.80;100.00;94717.09;4988192;28;20637;-83
2022/11/19 06:20:20;;;;;;;4.77;2.17;;;;;;;5.73;100.00;94723.72;4973229;28;20205;-83
2022/11/19 06:22:46;;;;;;;2.77;2.50;;;;;;;5.67;100.00;94727.69;4975478;28;20222;-82
2022/11/19 06:25:11;;;;;;;2.60;2.40;;;;;;;5.67;100.00;94721.72;4962570;28;20189;-83
2022/11/19 06:27:36;;;;;;;5.00;2.47;;;;;;;5.63;100.00;94725.50;4941793;28;20677;-83
2022/11/19 06:30:02;;;;;;;4.47;2.70;;;;;;;5.64;100.00;94721.97;4964051;28;20196;-83
2022/11/19 06:32:27;;;;;;;4.13;2.10;;;;;;;5.58;100.00;94730.28;4983328;28;20232;-82
2022/11/19 06:34:53;;;;;;;2.77;2.50;;;;;;;5.55;100.00;94722.81;4975233;28;20638;-82
2022/11/19 06:37:18;;;;;;;2.53;2.33;;;;;;;5.53;100.00;94728.09;4942796;28;20232;-81
2022/11/19 06:39:43;;;;;;;3.93;2.83;;;;;;;5.49;100.00;94728.53;4947672;28;20580;-82
2022/11/19 06:44:52;;;;;;;3.43;2.60;;;;;;;5.40;100.00;94746.41;4971508;28;20211;-81
2022/11/19 06:47:18;;;;;;;3.30;2.83;;;;;;;5.44;100.00;94743.56;4980383;28;20196;-81
2022/11/19 06:49:43;;;;;;;2.70;2.50;;;;;;;5.44;100.00;94753.84;4974199;28;20199;-81
2022/11/19 06:52:08;;;;;;;2.63;2.30;;;;;;;5.42;100.00;94755.75;4969924;28;20672;-82
2022/11/19 06:54:34;;;;;;;3.33;2.13;;;;;;;5.49;100.00;94754.28;4973028;28;20708;-82
2022/11/19 06:56:59;;;;;;;3.97;2.40;;;;;;;5.52;100.00;94764.28;4955227;28;20204;-81
2022/11/19 06:59:24;;;;;;;3.23;2.60;;;;;;;5.56;100.00;94766.44;4966496;28;20200;-81
2022/11/19 07:01:50;;;;;;;2.70;2.50;;;;;;;5.69;100.00;94768.75;4972392;28;20278;-83
2022/11/19 07:04:16;;;;;;;3.10;2.83;;;;;;;5.66;100.00;94756.97;4972018;28;20567;-81
2022/11/19 07:06:41;;;;;;;3.60;2.50;;;;;;;5.81;100.00;94761.69;4969953;28;20641;-82
2022/11/19 07:09:07;;;;;;;4.53;2.40;;;;;;;5.85;100.00;94769.03;4973466;28;20215;-82
2022/11/19 07:11:32;;;;;;;3.20;2.73;;;;;;;5.95;100.00;94767.28;4971713;28;20219;-82
2022/11/19 07:13:58;;;;;;;5.63;2.53;;;;;;;6.04;100.00;94757.91;4948381;28;20192;-81
2022/11/19 07:16:24;;;;;;;3.27;2.97;;;;;;;6.10;100.00;94762.50;4960958;28;20212;-82
2022/11/19 07:18:50;;;;;;;6.20;3.00;;;;;;;6.14;100.00;94765.59;4969303;28;20193;-83
2022/11/19 07:21:15;;;;;;;3.47;2.90;;;;;;;6.19;99.44;94766.00;4942401;28;20209;-82
2022/11/19 07:23:40;;;;;;;3.40;2.90;;;;;;;6.15;100.00;94767.22;4966331;28;20216;-82
2022/11/19 07:26:06;;;;;;;3.73;3.43;;;;;;;6.18;99.80;94770.34;4971834;28;20571;-81
2022/11/19 07:28:33;;;;;;;7.77;5.50;;;;;;;6.21;99.34;94771.84;4971844;28;20239;-83
2022/11/19 07:30:58;;;;;;;6.97;5.90;;;;;;;6.23;99.34;94772.50;4974558;28;20188;-82
2022/11/19 07:33:23;;;;;;;6.17;5.30;;;;;;;6.25;99.58;94786.06;4969093;28;20727;-82
2022/11/19 07:35:49;;;;;;;5.73;4.03;;;;;;;6.13;99.47;94787.19;4976096;28;20188;-83
2022/11/19 07:38:14;;;;;;;6.40;4.60;;;;;;;6.12;99.83;94783.78;4972665;28;20205;-82
2022/11/19 07:40:39;;;;;;;9.77;4.77;;;;;;;6.06;99.52;94784.34;4975016;28;20753;-82
2022/11/19 07:43:04;;;;;;;5.40;3.87;;;;;;;6.06;99.11;94793.84;4975404;28;20220;-83
2022/11/19 07:45:30;;;;;;;4.87;3.60;;;;;;;6.05;98.68;94792.22;4972333;28;20192;-83
2022/11/19 07:47:55;;;;;;;15.87;8.50;;;;;;;6.15;98.76;94795.59;4946469;28;20204;-82
2022/11/19 07:50:20;;;;;;;9.03;6.10;;;;;;;6.24;98.05;94794.75;4974638;28;20185;-82
2022/11/19 07:52:46;;;;;;;6.73;4.50;;;;;;;6.39;98.19;94805.44;4973572;28;20204;-83
2022/11/19 07:55:11;;;;;;;5.50;4.13;;;;;;;6.47;97.77;94811.53;4972442;28;20193;-83
2022/11/19 07:57:36;;;;;;;3.30;3.00;;;;;;;6.51;97.77;94807.69;4973374;28;20224;-82
2022/11/19 08:00:06;;;;;;;3.67;3.30;;;;;;;6.49;97.51;94806.22;4958667;28;20220;-82
2022/11/19 08:02:31;;;;;;;4.40;3.23;;;;;;;6.71;97.20;94802.47;4973409;28;20228;-83
2022/11/19 08:04:58;;;;;;;2.97;2.50;;;;;;;6.66;96.47;94804.66;4962385;28;20192;-83
2022/11/19 08:07:23;;;;;;;7.30;3.37;;;;;;;6.76;95.52;94802.88;4965371;28;20522;-83
2022/11/19 08:09:48;;;;;;;3.87;3.27;;;;;;;6.98;94.98;94807.66;4941303;28;20196;-84
2022/11/19 08:12:14;;;;;;;3.33;2.97;;;;;;;7.07;94.89;94796.47;4958741;28;20209;-83
2022/11/19 08:14:39;;;;;;;5.87;3.83;;;;;;;7.22;94.68;94793.38;4948975;28;20220;-82
2022/11/19 08:19:48;;;;;;;4.93;3.50;;;;;;;7.45;94.08;94794.59;4956574;28;20207;-82
2022/11/19 08:22:14;;;;;;;5.23;3.83;;;;;;;7.50;93.23;94801.88;4960532;28;20213;-83
2022/11/19 08:24:39;;;;;;;4.47;4.07;;;;;;;7.46;93.20;94801.38;4962156;28;20197;-83
2022/11/19 08:27:05;;;;;;;7.30;6.60;;;;;;;7.58;92.51;94797.63;4957580;28;20200;-82
2022/11/19 08:29:30;;;;;;;4.20;3.40;;;;;;;7.60;92.16;94807.81;4943357;28;20247;-83
2022/11/19 08:31:55;;;;;;;5.93;4.37;;;;;;;7.62;92.25;94801.53;4965558;28;20216;-83
2022/11/19 08:34:21;;;;;;;5.30;4.40;;;;;;;7.52;91.76;94805.97;4974401;28;20232;-82
2022/11/19 08:36:46;;;;;;;6.67;3.80;;;;;;;7.47;90.71;94803.00;4972115;28;20250;-82
2022/11/19 08:39:14;;;;;;;6.47;5.77;;;;;;;7.54;90.56;94806.63;4973206;28;20839;-83
2022/11/19 08:44:24;;;;;;;5.03;3.27;;;;;;;7.17;91.98;94816.25;4956975;28;20544;-83
2022/11/19 08:46:49;;;;;;;6.90;6.13;;;;;;;7.27;92.13;94817.00;4955607;28;20201;-82
2022/11/19 08:49:14;;;;;;;9.60;6.30;;;;;;;7.25;92.88;94829.25;4973841;28;20735;-83
2022/11/19 08:51:40;;;;;;;19.83;13.50;;;;;;;7.16;93.52;94820.63;4977742;28;20212;-83
2022/11/19 08:54:05;;;;;;;15.37;10.83;;;;;;;7.24;93.68;94825.03;4961682;28;20203;-83
2022/11/19 08:56:30;;;;;;;23.57;15.73;;;;;;;7.27;93.22;94827.34;4959700;28;20721;-82
2022/11/19 08:58:56;;;;;;;13.70;9.40;;;;;;;7.27;93.18;94828.16;4963738;28;20264;-82
2022/11/19 09:01:21;;;;;;;6.13;4.90;;;;;;;7.55;92.00;94822.94;4942829;28;20625;-82
2022/11/19 09:03:46;;;;;;;5.70;5.00;;;;;;;7.48;91.71;94835.63;4961973;28;20831;-83
2022/11/19 09:06:12;;;;;;;6.63;4.70;;;;;;;7.64;91.03;94832.41;4951484;28;20193;-82
2022/11/19 09:08:37;;;;;;;6.33;3.60;;;;;;;7.75;90.43;94824.41;4948944;28;20672;-83
2022/11/19 09:11:11;;;;;;;7.07;3.20;;;;;;;7.79;89.06;94825.75;4975642;28;20191;-81
2022/11/19 09:13:36;;;;;;;9.33;6.03;;;;;;;7.80;88.49;94836.91;4969580;28;20217;-83
2022/11/19 09:16:02;;;;;;;6.40;4.57;;;;;;;7.80;87.67;94832.56;4948810;28;20205;-82
2022/11/19 09:18:27;;;;;;;5.07;4.57;;;;;;;7.72;88.03;94827.31;4975482;28;20192;-83
2022/11/19 09:20:54;;;;;;;6.07;5.10;;;;;;;7.79;86.41;94836.09;4974673;28;20685;-83
2022/11/19 09:23:20;;;;;;;3.37;3.03;;;;;;;7.87;86.48;94837.94;4977110;28;20276;-84
2022/11/19 09:25:57;;;;;;;2.70;2.40;;;;;;;7.80;84.19;94847.25;4945604;28;20200;-83
2022/11/19 09:28:22;;;;;;;2.47;2.27;;;;;;;7.85;85.37;94843.25;4960844;28;20280;-83
2022/11/19 09:30:58;;;;;;;3.97;2.73;;;;;;;7.64;85.60;94859.06;4975241;28;20553;-83
2022/11/19 09:33:24;;;;;;;4.97;2.33;;;;;;;7.53;86.48;94859.28;4963465;28;20212;-82
2022/11/19 09:35:49;;;;;;;3.80;2.70;;;;;;;7.34;86.76;94860.19;4958522;28;20192;-81
2022/11/19 09:38:14;;;;;;;4.97;2.90;;;;;;;7.34;88.29;94864.56;4976943;28;20287;-82
2022/11/19 09:40:44;;;;;;;3.60;2.60;;;;;;;7.61;87.53;94863.72;4976200;28;20626;-82
2022/11/19 09:43:28;;;;;;;3.40;2.50;;;;;;;7.73;87.69;94856.56;4969909;28;20216;-82
2022/11/19 09:45:56;;;;;;;4.30;2.43;;;;;;;7.40;87.70;94856.22;4985272;28;20216;-83
2022/11/19 09:48:30;;;;;;;3.80;2.10;;;;;;;7.49;85.28;94860.50;4967971;28;20277;-83
2022/11/19 09:51:10;;;;;;;4.07;2.13;;;;;;;7.81;85.99;94861.81;4947092;28;20208;-83
2022/11/19 09:53:52;;;;;;;7.07;2.60;;;;;;;8.24;84.69;94864.44;4972167;28;20200;-82
2022/11/19 09:56:25;;;;;;;1.90;1.80;;;;;;;8.31;83.44;94871.63;4973980;28;20199;-81
2022/11/19 09:58:50;;;;;;;2.53;2.23;;;;;;;8.42;81.89;94871.41;4969875;28;20195;-83
2022/11/19 10:01:17;;;;;;;2.37;2.17;;;;;;;8.33;80.51;94869.69;4971746;28;20212;-82
2022/11/19 10:03:46;;;;;;;4.13;1.67;;;;;;;8.49;80.53;94872.44;4956921;28;20201;-84
2022/11/19 10:06:14;;;;;;;1.73;1.47;;;;;;;8.61;80.67;94878.97;4958155;28;20288;-82
2022/11/19 10:08:58;;;;;;;2.33;1.77;;;;;;;8.36;80.17;94874.56;4990039;28;20200;-82
2022/11/19 10:11:32;;;;;;;5.33;2.10;;;;;;;8.85;79.80;94878.31;4976406;28;20197;-82
2022/11/19 10:14:10;;;;;;;2.67;1.90;;;;;;;8.99;78.86;94877.72;4958361;28;20255;-81
2022/11/19 10:16:56;;;;;;;3.17;1.87;;;;;;;9.03;79.37;94870.47;4959155;28;20196;-83
2022/11/19 10:19:40;;;;;;;2.50;1.50;;;;;;;8.58;78.46;94876.69;4972766;28;20176;-82
2022/11/19 10:22:09;;;;;;;5.63;1.90;;;;;;;8.90;78.46;94864.88;4967427;28;20209;-82
2022/11/19 10:24:43;;;;;;;3.90;1.80;;;;;;;8.89;78.60;94863.28;4961428;28;20212;-82
2022/11/19 10:27:31;;;;;;;3.90;1.80;;;;;;;8.69;79.41;94860.91;4972256;28;20570;-82
2022/11/19 10:29:59;;;;;;;6.33;1.70;;;;;;;8.35;78.54;94860.81;4961451;28;20238;-81
2022/11/19 10:32:37;;;;;;;4.40;2.10;;;;;;;8.36;79.79;94866.81;4966753;28;20211;-80
2022/11/19 10:35:10;;;;;;;7.63;5.27;;;;;;;8.49;80.06;94869.84;4960568;28;20195;-81
2022/11/19 10:37:40;;;;;;;5.73;3.10;;;;;;;8.37;80.79;94863.25;4961650;28;20315;-81
2022/11/19 10:40:18;;;;;;;5.67;5.10;;;;;;;8.57;80.28;94863.88;4975197;28;20207;-82
2022/11/19 10:42:49;;;;;;;3.53;2.37;;;;;;;8.33;80.76;94861.91;4973840;28;20212;-83
2022/11/19 10:45:17;;;;;;;5.73;2.30;;;;;;;8.27;81.60;94870.28;4943006;28;20204;-82
2022/11/19 10:47:48;;;;;;;5.77;2.33;;;;;;;8.38;81.71;94864.88;4976679;28;20187;-82
2022/11/19 10:50:19;;;;;;;3.87;1.93;;;;;;;8.08;82.59;94858.31;4987292;28;20235;-83
2022/11/19 10:53:23;;;;;;;6.60;3.93;;;;;;;8.15;83.01;94851.59;4942831;28;20220;-82
2022/11/19 10:55:51;;;;;;;6.70;2.43;;;;;;;7.93;83.55;94864.00;4936837;29;20314;-81
2022/11/19 10:58:21;;;;;;;5.60;3.10;;;;;;;8.11;83.94;94863.19;4919666;29;20280;-82
2022/11/19 11:00:47;;;;;;;5.43;4.00;;;;;;;8.05;83.32;94858.63;4935633;29;20277;-82
2022/11/19 11:03:19;;;;;;;6.00;3.90;;;;;;;8.07;83.96;94862.69;4935490;29;20748;-82
2022/11/19 11:05:59;;;;;;;10.63;6.93;;;;;;;7.86;84.82;94864.75;4921683;29;20994;-82
2022/11/19 11:08:25;;;;;;;71.43;50.90;;;;;;;7.78;85.46;94856.94;4933876;29;20233;-82
2022/11/19 11:10:51;;;;;;;66.77;42.57;;;;;;;7.97;85.74;94855.97;4919754;29;20257;-81
2022/11/19 11:16:19;;;;;;;11.87;7.13;;;;;;;8.31;85.22;94848.34;4946624;29;20300;-82
2022/11/19 11:18:46;;;;;;;5.40;3.63;;;;;;;8.61;83.76;94847.91;4958368;29;20383;-81
2022/11/19 11:21:28;;;;;;;5.30;3.30;;;;;;;8.71;83.92;94842.63;4957024;29;20217;-82
2022/11/19 11:23:54;;;;;;;5.20;3.03;;;;;;;8.84;82.78;94844.81;4935327;29;20269;-82
2022/11/19 11:26:23;;;;;;;3.10;2.60;;;;;;;8.62;83.30;94846.13;4941897;29;20210;-82
2022/11/19 11:29:04;;;;;;;3.00;2.43;;;;;;;8.85;82.31;94846.44;4936952;29;20177;-82
2022/11/19 11:31:40;;;;;;;6.33;2.33;;;;;;;8.60;83.27;94837.72;4931621;28;20291;-82
2022/11/19 11:34:13;;;;;;;2.87;2.40;;;;;;;8.70;81.99;94849.56;4954977;28;20660;-81
2022/11/19 11:36:39;;;;;;;3.83;2.50;;;;;;;8.39;83.20;94840.63;4969335;28;20193;-82
2022/11/19 11:39:05;;;;;;;3.80;2.70;;;;;;;8.28;84.76;94841.66;4971798;28;20188;-82
2022/11/19 11:41:41;;;;;;;3.40;2.63;;;;;;;8.68;84.15;94843.75;4970466;28;20224;-82
2022/11/19 11:44:13;;;;;;;4.57;2.57;;;;;;;8.84;83.50;94844.81;4983829;28;20200;-83
2022/11/19 11:46:46;;;;;;;3.80;2.93;;;;;;;8.64;83.86;94842.41;4964450;28;20188;-82
2022/11/19 11:49:24;;;;;;;3.27;2.97;;;;;;;8.48;85.85;94839.72;4962632;28;20213;-82
2022/11/19 11:52:07;;;;;;;5.87;4.50;;;;;;;8.37;85.61;94834.81;4959530;28;20276;-83
2022/11/19 11:54:32;;;;;;;3.43;3.10;;;;;;;8.51;86.31;94834.25;4974807;28;20189;-83
2022/11/19 11:57:17;;;;;;;4.40;2.70;;;;;;;8.46;86.23;94834.69;4978605;28;20188;-83
2022/11/19 11:59:42;;;;;;;3.60;2.67;;;;;;;8.35;86.73;94829.78;4976386;28;20525;-82
2022/11/19 12:02:37;;;;;;;3.17;2.50;;;;;;;8.30;87.56;94837.16;4959568;28;20244;-82
2022/11/19 12:05:14;;;;;;;2.53;2.10;;;;;;;8.50;86.50;94843.81;4971324;28;20291;-82